Time;durP1;ratioP1;P1;durP2;ratioP2;P2;SDS_P1;SDS_P2;PMS_P1;PMS_P2;Temp;Humidity;BMP_temperature;BMP_pressure;BME280_temperature;BME280_humidity;BME280_pressure;Samples;Min_cycle;Max_cycle;Signal;HPM_P1;HPM_P2
2022/09/10 00:01:30;;;;;;;2.45;0.40;;;16.80;71.40;;;;;;4957462;28;20045;-76
2022/09/10 00:03:56;;;;;;;2.35;0.22;;;16.80;71.40;;;;;;4987604;28;20125;-74
2022/09/10 00:06:24;;;;;;;0.43;0.30;;;16.80;71.40;;;;;;4974969;28;20121;-75
2022/09/10 00:08:50;;;;;;;0.15;0.15;;;16.80;71.40;;;;;;4974344;28;20410;-74
2022/09/10 00:11:16;;;;;;;0.28;0.20;;;16.80;71.40;;;;;;4957336;28;20474;-74
2022/09/10 00:13:42;;;;;;;0.20;0.20;;;16.80;71.40;;;;;;4993023;28;20232;-74
2022/09/10 00:16:09;;;;;;;5.07;0.80;;;16.80;71.40;;;;;;4971535;28;20487;-74
2022/09/10 00:18:35;;;;;;;1.88;0.40;;;16.80;71.60;;;;;;4980838;28;20037;-74
2022/09/10 00:21:04;;;;;;;0.60;0.20;;;16.80;71.60;;;;;;5004760;28;20038;-75
2022/09/10 00:23:29;;;;;;;1.00;0.17;;;16.80;71.60;;;;;;5009989;28;20041;-75
2022/09/10 00:25:56;;;;;;;0.85;0.20;;;16.80;71.60;;;;;;5001702;28;20030;-76
2022/09/10 00:28:23;;;;;;;0.50;0.20;;;16.70;71.60;;;;;;4993623;28;20045;-75
2022/09/10 00:30:49;;;;;;;0.40;0.25;;;16.70;71.60;;;;;;4991858;28;20026;-75
2022/09/10 00:33:15;;;;;;;1.15;0.43;;;16.70;71.60;;;;;;4973852;28;20890;-74
2022/09/10 00:35:40;;;;;;;0.40;0.20;;;16.70;71.80;;;;;;4988853;28;20042;-75
2022/09/10 00:38:07;;;;;;;1.42;0.30;;;16.70;71.80;;;;;;5000695;28;20038;-75
2022/09/10 00:40:36;;;;;;;0.30;0.20;;;16.70;72.00;;;;;;4990135;28;20037;-75
2022/09/10 00:43:01;;;;;;;0.80;0.20;;;16.70;72.00;;;;;;4990526;28;20057;-75
2022/09/10 00:45:30;;;;;;;0.40;0.20;;;16.70;72.00;;;;;;4973681;28;20073;-76
2022/09/10 00:48:10;;;;;;;1.02;0.30;;;16.60;72.00;;;;;;4958705;28;20034;-75
2022/09/10 00:50:38;;;;;;;0.73;0.20;;;16.70;72.30;;;;;;4967748;28;20048;-75
2022/09/10 00:53:06;;;;;;;0.25;0.10;;;16.60;72.00;;;;;;4955367;28;20038;-75
2022/09/10 00:55:33;;;;;;;2.50;0.38;;;16.60;72.30;;;;;;4955870;28;20073;-76
2022/09/10 00:57:59;;;;;;;1.02;0.35;;;16.60;72.40;;;;;;4956934;28;20042;-76
2022/09/10 01:00:25;;;;;;;1.05;0.30;;;16.60;72.50;;;;;;4974266;28;20086;-74
2022/09/10 01:02:51;;;;;;;0.90;0.20;;;16.60;72.70;;;;;;4967189;28;20089;-75
2022/09/10 01:05:17;;;;;;;3.83;0.50;;;16.60;72.80;;;;;;4943903;28;20106;-75
2022/09/10 01:07:43;;;;;;;0.95;0.28;;;16.60;72.80;;;;;;4958101;28;20041;-75
2022/09/10 01:10:13;;;;;;;3.10;0.73;;;16.50;72.80;;;;;;4970918;28;20145;-76
2022/09/10 01:12:58;;;;;;;1.05;0.43;;;16.50;72.90;;;;;;4956633;28;20124;-75
2022/09/10 01:15:34;;;;;;;1.33;0.30;;;16.50;73.20;;;;;;4971439;28;20133;-75
2022/09/10 01:18:10;;;;;;;0.22;0.20;;;16.50;73.00;;;;;;4961773;28;20076;-76
2022/09/10 01:21:01;;;;;;;0.43;0.38;;;16.50;73.10;;;;;;4971289;28;20034;-75
2022/09/10 01:23:58;;;;;;;1.23;0.30;;;16.50;73.40;;;;;;4980581;28;20038;-75
2022/09/10 01:27:05;;;;;;;1.05;0.43;;;16.50;73.40;;;;;;4988021;28;20046;-75
2022/09/10 01:29:37;;;;;;;1.33;0.40;;;16.40;73.40;;;;;;4889766;29;20709;-75
2022/09/10 01:32:11;;;;;;;0.35;0.28;;;16.40;73.20;;;;;;4957379;28;20044;-75
2022/09/10 01:34:54;;;;;;;0.20;0.20;;;16.40;73.20;;;;;;4996434;28;20037;-75
2022/09/10 01:37:27;;;;;;;2.03;0.38;;;16.40;74.20;;;;;;4985569;28;20064;-74
2022/09/10 01:39:52;;;;;;;3.80;0.50;;;16.30;73.20;;;;;;4977573;28;20049;-75
2022/09/10 01:42:18;;;;;;;1.85;0.52;;;16.30;73.30;;;;;;4970927;28;20046;-76
2022/09/10 01:44:50;;;;;;;1.65;0.38;;;16.30;73.30;;;;;;4972631;28;20057;-75
2022/09/10 01:47:39;;;;;;;1.20;0.52;;;16.30;73.60;;;;;;4953881;28;20043;-75
2022/09/10 01:50:10;;;;;;;1.20;0.50;;;16.30;73.90;;;;;;4968616;28;20039;-75
2022/09/10 01:52:50;;;;;;;0.93;0.43;;;16.20;73.70;;;;;;4968035;28;20046;-75
2022/09/10 01:55:40;;;;;;;2.60;0.60;;;16.20;73.70;;;;;;4964750;28;20095;-75
2022/09/10 01:58:20;;;;;;;1.10;0.70;;;16.20;74.20;;;;;;4951123;28;20042;-76
2022/09/10 02:01:00;;;;;;;1.42;0.57;;;16.20;74.00;;;;;;4940180;28;20038;-76
2022/09/10 02:03:25;;;;;;;0.70;0.57;;;16.10;74.10;;;;;;4965488;28;20043;-75
2022/09/10 02:05:52;;;;;;;1.15;0.60;;;16.10;74.10;;;;;;4937688;28;20039;-75
2022/09/10 02:08:29;;;;;;;2.65;0.82;;;16.10;74.20;;;;;;4949583;28;20050;-75
2022/09/10 02:10:58;;;;;;;3.28;0.85;;;16.10;74.40;;;;;;4964647;28;20070;-76
2022/09/10 02:13:23;;;;;;;1.85;0.60;;;16.10;74.60;;;;;;4952301;28;20039;-75
2022/09/10 02:15:51;;;;;;;0.95;0.50;;;16.00;74.70;;;;;;4955272;28;20762;-75
2022/09/10 02:18:18;;;;;;;0.70;0.63;;;16.00;74.70;;;;;;4949485;28;20047;-74
2022/09/10 02:20:44;;;;;;;2.17;0.50;;;16.00;74.90;;;;;;4947225;28;20046;-76
2022/09/10 02:23:09;;;;;;;2.70;0.60;;;16.00;75.00;;;;;;4968573;28;20034;-76
2022/09/10 02:25:38;;;;;;;1.90;0.70;;;15.90;75.00;;;;;;4981965;28;20054;-75
2022/09/10 02:28:04;;;;;;;4.07;1.45;;;15.90;75.10;;;;;;4966108;28;20041;-76
2022/09/10 02:30:30;;;;;;;1.77;0.68;;;15.90;75.20;;;;;;4952853;28;20066;-75
2022/09/10 02:32:55;;;;;;;1.40;0.70;;;15.90;75.20;;;;;;4967510;28;20065;-74
2022/09/10 02:35:21;;;;;;;1.60;0.52;;;15.90;75.30;;;;;;4969691;28;20408;-75
2022/09/10 02:37:48;;;;;;;2.17;0.70;;;15.80;75.30;;;;;;4969452;28;20126;-75
2022/09/10 02:40:14;;;;;;;2.60;0.73;;;15.90;75.60;;;;;;4931709;28;20049;-75
2022/09/10 02:42:45;;;;;;;2.15;0.70;;;15.80;75.60;;;;;;4952916;28;20047;-74
2022/09/10 02:45:12;;;;;;;2.42;0.70;;;15.80;75.50;;;;;;4967060;28;20046;-75
2022/09/10 02:47:37;;;;;;;1.23;0.40;;;15.80;75.50;;;;;;4958733;28;20031;-76
2022/09/10 02:50:04;;;;;;;3.42;0.60;;;15.90;75.60;;;;;;4968356;28;20113;-75
2022/09/10 02:52:29;;;;;;;1.55;0.50;;;15.80;75.50;;;;;;4986102;28;20136;-76
2022/09/10 02:54:55;;;;;;;3.40;0.57;;;15.90;75.50;;;;;;4990066;28;20550;-74
2022/09/10 02:57:20;;;;;;;1.20;0.52;;;15.90;75.50;;;;;;4992263;28;20065;-75
2022/09/10 02:59:46;;;;;;;1.05;0.50;;;15.90;75.40;;;;;;4985135;28;20062;-75
2022/09/10 03:02:11;;;;;;;1.30;0.55;;;15.90;75.60;;;;;;4987114;28;20050;-75
2022/09/10 03:04:37;;;;;;;0.40;0.40;;;15.90;75.60;;;;;;4989251;28;20061;-75
2022/09/10 03:07:03;;;;;;;1.60;0.50;;;15.90;75.50;;;;;;4990254;28;20080;-76
2022/09/10 03:09:28;;;;;;;0.60;0.40;;;15.90;75.50;;;;;;4987780;28;20058;-75
2022/09/10 03:11:54;;;;;;;1.02;0.60;;;15.90;75.40;;;;;;4989410;28;20447;-75
2022/09/10 03:14:22;;;;;;;1.10;0.50;;;15.90;75.50;;;;;;4970546;28;20880;-75
2022/09/10 03:16:47;;;;;;;2.72;0.68;;;15.90;75.40;;;;;;4983325;28;20115;-75
2022/09/10 03:19:13;;;;;;;1.48;0.55;;;15.90;75.50;;;;;;4989655;28;20057;-76
2022/09/10 03:21:40;;;;;;;3.22;0.50;;;15.90;75.30;;;;;;4984431;28;20031;-74
2022/09/10 04:28:13;;;;;;;2.53;0.40;;;15.90;75.30;;;;;;5000279;28;20045;-76
2022/09/10 04:30:39;;;;;;;1.90;0.40;;;15.90;75.00;;;;;;4971075;28;20031;-75
2022/09/10 04:33:05;;;;;;;0.95;0.40;;;15.90;74.90;;;;;;4987839;28;20084;-74
2022/09/10 04:35:30;;;;;;;1.45;0.60;;;15.90;74.90;;;;;;4989328;28;20030;-75
2022/09/10 04:37:56;;;;;;;1.35;0.40;;;15.90;75.00;;;;;;4981228;28;20070;-75
2022/09/10 04:40:21;;;;;;;2.35;0.45;;;15.90;75.00;;;;;;4984524;28;20026;-75
2022/09/10 04:42:47;;;;;;;3.05;0.70;;;15.90;75.10;;;;;;4970246;28;20034;-76
2022/09/10 04:45:12;;;;;;;1.33;0.68;;;15.80;75.00;;;;;;5005107;28;20022;-75
2022/09/10 04:47:38;;;;;;;1.38;0.90;;;15.90;75.10;;;;;;4971876;28;20060;-75
2022/09/10 04:50:05;;;;;;;2.38;0.70;;;15.90;75.30;;;;;;4979005;28;20033;-74
2022/09/10 04:52:30;;;;;;;0.43;0.40;;;15.90;75.40;;;;;;5014165;28;20030;-75
2022/09/10 04:54:56;;;;;;;2.35;0.40;;;15.80;75.40;;;;;;5011348;28;20048;-75
2022/09/10 04:57:22;;;;;;;1.58;0.50;;;15.80;75.40;;;;;;4985833;28;20064;-74
2022/09/10 04:59:48;;;;;;;3.05;0.40;;;15.80;75.40;;;;;;5015291;28;20097;-74
2022/09/10 05:02:13;;;;;;;2.45;0.60;;;15.80;75.50;;;;;;5037791;28;20033;-75
2022/09/10 05:04:39;;;;;;;3.40;1.73;;;15.80;75.60;;;;;;5002188;28;20136;-75
2022/09/10 05:07:04;;;;;;;0.63;0.40;;;15.80;75.70;;;;;;5032606;28;20033;-76
2022/09/10 05:09:30;;;;;;;1.98;0.80;;;15.80;75.90;;;;;;5017941;28;20037;-75
2022/09/10 05:11:59;;;;;;;1.83;0.47;;;15.80;75.90;;;;;;5037682;28;20056;-73
2022/09/10 05:14:25;;;;;;;1.05;0.40;;;15.80;76.00;;;;;;5036647;28;20052;-74
2022/09/10 05:16:51;;;;;;;0.80;0.38;;;15.70;75.90;;;;;;5008116;28;20041;-75
2022/09/10 05:19:16;;;;;;;3.00;0.65;;;15.70;75.90;;;;;;5012586;28;20033;-75
2022/09/10 05:21:44;;;;;;;1.67;0.68;;;15.70;75.90;;;;;;5016402;28;20029;-74
2022/09/10 05:24:10;;;;;;;4.60;0.68;;;15.70;76.90;;;;;;5031102;28;20029;-75
2022/09/10 05:26:36;;;;;;;2.15;0.60;;;15.70;76.30;;;;;;5027367;28;20080;-75
2022/09/10 05:29:01;;;;;;;3.25;0.70;;;15.70;76.40;;;;;;5026706;28;20522;-75
2022/09/10 05:31:27;;;;;;;2.28;0.80;;;15.70;76.40;;;;;;5030997;28;20041;-76
2022/09/10 05:33:54;;;;;;;5.22;0.75;;;15.70;76.60;;;;;;5030710;28;20116;-75
2022/09/10 05:36:20;;;;;;;2.53;0.70;;;15.70;76.60;;;;;;5026534;28;20035;-76
2022/09/10 05:38:45;;;;;;;1.65;0.60;;;15.80;76.70;;;;;;5029377;28;20097;-74
2022/09/10 05:41:11;;;;;;;1.23;0.70;;;15.70;76.70;;;;;;5034032;28;20037;-76
2022/09/10 05:44:04;;;;;;;0.88;0.75;;;15.80;76.80;;;;;;5035040;28;20061;-75
2022/09/10 05:46:29;;;;;;;2.20;0.57;;;15.80;77.20;;;;;;5019388;28;20048;-75
2022/09/10 05:48:55;;;;;;;2.38;0.45;;;15.80;76.90;;;;;;5034826;28;20030;-75
2022/09/10 05:51:21;;;;;;;0.80;0.40;;;15.80;76.80;;;;;;5004139;28;20060;-75
2022/09/10 05:53:46;;;;;;;1.10;0.50;;;15.80;76.80;;;;;;5035078;28;20021;-75
2022/09/10 05:56:12;;;;;;;1.42;0.40;;;15.80;77.00;;;;;;5033473;28;20034;-75
2022/09/10 05:58:37;;;;;;;0.47;0.40;;;15.80;76.80;;;;;;5020371;28;20129;-71
2022/09/10 06:01:03;;;;;;;2.38;0.55;;;15.90;76.90;;;;;;5034664;28;20160;-76
2022/09/10 06:03:28;;;;;;;0.77;0.50;;;15.90;76.80;;;;;;5037604;28;20030;-76
2022/09/10 06:05:54;;;;;;;6.03;1.02;;;15.90;76.80;;;;;;5042336;28;20042;-74
2022/09/10 06:08:20;;;;;;;1.55;0.60;;;15.90;76.70;;;;;;5039082;28;20041;-75
2022/09/10 06:10:59;;;;;;;0.50;0.45;;;16.00;76.90;;;;;;5018061;28;20081;-75
2022/09/10 06:13:25;;;;;;;3.70;0.75;;;16.00;77.10;;;;;;5037442;28;20040;-76
2022/09/10 06:15:51;;;;;;;2.28;0.52;;;16.00;76.90;;;;;;5002413;28;20045;-75
2022/09/10 06:18:16;;;;;;;1.88;0.50;;;16.10;76.90;;;;;;5042837;28;20049;-76
2022/09/10 06:20:42;;;;;;;2.30;0.60;;;16.10;76.80;;;;;;5022997;28;20556;-75
2022/09/10 06:23:07;;;;;;;3.03;0.55;;;16.10;76.70;;;;;;5026780;28;20033;-75
2022/09/10 06:25:33;;;;;;;1.10;0.60;;;16.20;77.50;;;;;;5037300;28;20060;-74
2022/09/10 06:28:00;;;;;;;1.75;0.50;;;16.20;76.60;;;;;;5019055;28;20107;-76
2022/09/10 06:30:26;;;;;;;2.65;0.70;;;16.20;76.60;;;;;;5042053;28;20080;-75
2022/09/10 06:32:51;;;;;;;0.57;0.50;;;16.20;76.60;;;;;;5042466;28;20029;-75
2022/09/10 06:35:17;;;;;;;2.55;0.45;;;16.30;76.50;;;;;;4998133;28;20398;-75
2022/09/10 06:37:44;;;;;;;2.53;0.60;;;16.30;76.60;;;;;;5046814;28;20409;-77
2022/09/10 06:40:09;;;;;;;1.45;0.52;;;16.30;77.20;;;;;;5041165;28;20053;-77
2022/09/10 06:42:35;;;;;;;1.67;0.40;;;16.40;76.40;;;;;;5029455;28;20036;-76
2022/09/10 06:45:01;;;;;;;3.85;0.75;;;16.40;76.40;;;;;;5041401;28;20042;-78
2022/09/10 06:47:26;;;;;;;1.42;0.60;;;16.50;76.30;;;;;;5023859;28;20080;-77
2022/09/10 06:49:52;;;;;;;1.98;0.52;;;16.50;76.20;;;;;;5032718;28;20276;-77
2022/09/10 06:52:17;;;;;;;1.63;0.60;;;16.50;76.20;;;;;;5045938;28;20433;-76
2022/09/10 06:54:43;;;;;;;1.30;0.38;;;16.50;76.10;;;;;;5035881;28;20030;-78
2022/09/10 06:57:09;;;;;;;2.20;0.95;;;16.60;75.90;;;;;;5024018;28;20037;-76
2022/09/10 06:59:34;;;;;;;3.92;0.63;;;16.60;75.90;;;;;;5009412;28;20537;-75
2022/09/10 07:02:01;;;;;;;3.20;0.68;;;16.70;76.00;;;;;;5033821;28;20037;-78
2022/09/10 07:04:26;;;;;;;1.85;0.50;;;16.70;75.90;;;;;;5020825;28;20084;-75
2022/09/10 07:06:52;;;;;;;1.50;0.65;;;16.70;76.00;;;;;;4967994;28;21484;-76
2022/09/10 07:09:18;;;;;;;3.92;0.50;;;16.70;76.10;;;;;;5026649;28;20045;-75
2022/09/10 07:11:43;;;;;;;3.25;0.93;;;16.60;76.20;;;;;;5034054;28;20029;-75
2022/09/10 07:14:11;;;;;;;1.80;1.33;;;16.70;76.40;;;;;;5017059;28;20520;-74
2022/09/10 07:16:40;;;;;;;4.32;0.70;;;16.70;76.80;;;;;;5016418;28;20109;-74
2022/09/10 07:19:06;;;;;;;0.63;0.50;;;16.60;76.80;;;;;;5031202;28;20055;-75
2022/09/10 07:21:32;;;;;;;1.95;0.50;;;16.60;76.80;;;;;;5024030;28;20049;-75
2022/09/10 07:24:00;;;;;;;1.35;0.70;;;16.60;77.10;;;;;;5015810;28;20026;-75
2022/09/10 07:26:25;;;;;;;6.60;0.70;;;16.60;77.10;;;;;;5002157;28;20506;-75
2022/09/10 07:28:51;;;;;;;2.80;0.85;;;16.60;77.20;;;;;;5031140;28;20078;-77
2022/09/10 07:31:27;;;;;;;4.35;1.00;;;16.60;77.30;;;;;;5018464;28;20029;-75
2022/09/10 07:33:54;;;;;;;70.60;7.30;;;16.60;77.40;;;;;;5006281;28;20724;-74
2022/09/10 07:36:19;;;;;;;55.40;5.75;;;16.70;77.50;;;;;;5020103;28;20021;-76
2022/09/10 07:38:45;;;;;;;29.50;3.85;;;16.70;77.50;;;;;;5035127;28;20316;-75
2022/09/10 07:41:12;;;;;;;296.33;33.33;;;16.70;77.40;;;;;;5037074;28;20721;-76
2022/09/10 07:43:38;;;;;;;66.70;7.97;;;16.70;77.50;;;;;;5038160;28;20069;-75
2022/09/10 07:46:05;;;;;;;71.70;8.70;;;16.80;77.50;;;;;;5014865;28;20317;-75
2022/09/10 07:48:31;;;;;;;6.63;1.38;;;16.80;77.50;;;;;;5035254;28;20038;-75
2022/09/10 07:51:01;;;;;;;20.98;4.90;;;16.80;77.60;;;;;;4998936;28;20040;-77
2022/09/10 07:53:26;;;;;;;25.30;4.32;;;16.80;77.80;;;;;;5035904;28;20045;-76
2022/09/10 07:56:03;;;;;;;11.50;2.63;;;16.80;77.70;;;;;;5040392;28;20037;-76
2022/09/10 07:58:30;;;;;;;19.17;4.28;;;16.80;77.90;;;;;;5015398;28;20053;-75
2022/09/10 08:00:55;;;;;;;7.90;2.95;;;16.90;77.70;;;;;;5020520;28;20037;-74
2022/09/10 08:03:24;;;;;;;4.60;1.30;;;16.90;77.60;;;;;;5008737;28;20041;-75
2022/09/10 08:05:49;;;;;;;3.70;1.17;;;17.00;77.80;;;;;;5022528;28;20041;-75
2022/09/10 08:08:15;;;;;;;1.80;0.70;;;17.00;77.70;;;;;;5034577;28;20033;-75
2022/09/10 08:10:41;;;;;;;1.65;0.95;;;17.00;77.90;;;;;;5013757;28;20063;-74
2022/09/10 08:13:06;;;;;;;3.42;1.38;;;17.00;78.10;;;;;;5028369;28;20391;-75
2022/09/10 08:15:33;;;;;;;4.05;1.17;;;17.00;78.10;;;;;;5012600;28;20379;-77
2022/09/10 08:17:59;;;;;;;0.85;0.55;;;17.00;77.90;;;;;;5022723;28;20045;-75
2022/09/10 08:20:25;;;;;;;2.15;0.50;;;17.00;77.80;;;;;;5001368;28;20056;-74
2022/09/10 08:22:57;;;;;;;2.28;0.60;;;16.90;78.00;;;;;;5006976;28;20453;-74
2022/09/10 08:25:22;;;;;;;1.10;0.50;;;17.00;78.20;;;;;;5006663;28;20061;-74
2022/09/10 08:27:48;;;;;;;1.85;0.60;;;17.00;78.30;;;;;;5008628;28;20056;-75
2022/09/10 08:30:13;;;;;;;0.98;0.50;;;17.10;78.60;;;;;;5005684;28;20052;-74
2022/09/10 08:32:39;;;;;;;0.65;0.50;;;17.10;79.50;;;;;;4969794;28;20840;-74
2022/09/10 08:35:05;;;;;;;0.73;0.50;;;17.10;78.70;;;;;;4967583;28;20037;-75
2022/09/10 08:37:32;;;;;;;0.90;0.52;;;17.20;78.70;;;;;;4980984;28;20038;-74
2022/09/10 08:39:58;;;;;;;0.55;0.40;;;17.20;78.60;;;;;;4987234;28;20123;-74
2022/09/10 08:42:27;;;;;;;0.80;0.30;;;17.30;78.40;;;;;;4993107;28;20145;-75
2022/09/10 08:45:13;;;;;;;1.27;0.40;;;17.30;78.40;;;;;;4968797;28;20230;-75
2022/09/10 08:47:48;;;;;;;1.73;0.70;;;17.40;78.80;;;;;;5012480;28;20037;-75
2022/09/10 08:50:29;;;;;;;0.50;0.50;;;17.40;78.50;;;;;;5001188;28;20097;-76
2022/09/10 08:53:04;;;;;;;1.00;0.80;;;17.60;78.60;;;;;;5000413;28;20050;-75
2022/09/10 08:55:31;;;;;;;1.25;0.80;;;17.60;78.50;;;;;;4999959;28;20092;-75
2022/09/10 08:58:01;;;;;;;0.55;0.55;;;17.60;78.20;;;;;;4971201;28;20045;-75
2022/09/10 09:00:32;;;;;;;1.83;0.70;;;17.70;78.20;;;;;;4998720;28;20104;-76
2022/09/10 09:03:22;;;;;;;2.17;0.68;;;17.70;77.90;;;;;;4993074;28;20030;-75
2022/09/10 09:05:57;;;;;;;2.53;0.60;;;17.70;78.10;;;;;;4987931;28;20042;-76
2022/09/10 09:08:26;;;;;;;1.17;0.50;;;17.70;78.60;;;;;;4983265;28;20034;-74
2022/09/10 09:11:09;;;;;;;0.50;0.30;;;17.70;77.90;;;;;;4968842;28;20389;-76
2022/09/10 09:14:02;;;;;;;1.58;0.73;;;17.70;78.00;;;;;;4990785;28;20050;-75
2022/09/10 09:16:52;;;;;;;0.25;0.20;;;17.80;78.70;;;;;;4992821;28;20053;-75
2022/09/10 09:19:27;;;;;;;0.30;0.30;;;17.80;77.90;;;;;;5010935;28;20136;-74
2022/09/10 09:21:53;;;;;;;0.63;0.30;;;17.90;77.70;;;;;;5011400;28;20022;-74
2022/09/10 09:24:43;;;;;;;1.02;0.30;;;17.90;77.60;;;;;;5013927;28;20045;-75
2022/09/10 09:27:15;;;;;;;0.47;0.28;;;18.00;77.60;;;;;;4981604;28;20030;-74
2022/09/10 09:29:49;;;;;;;1.83;0.40;;;18.10;77.50;;;;;;5015976;28;20052;-74
2022/09/10 09:32:16;;;;;;;1.42;0.50;;;18.30;77.30;;;;;;4994589;28;20045;-74
2022/09/10 09:35:18;;;;;;;1.33;0.60;;;18.40;77.80;;;;;;4975839;28;20117;-74
2022/09/10 09:37:47;;;;;;;2.47;1.08;;;18.50;77.20;;;;;;5006138;28;20060;-76
2022/09/10 09:40:29;;;;;;;2.30;0.60;;;18.50;76.60;;;;;;5026323;28;20033;-74
2022/09/10 09:43:07;;;;;;;1.73;0.77;;;18.50;76.70;;;;;;5029083;28;20045;-75
2022/09/10 09:45:37;;;;;;;0.98;0.60;;;18.50;76.50;;;;;;4994311;28;20053;-74
2022/09/10 09:48:11;;;;;;;1.25;0.80;;;18.60;76.60;;;;;;5010718;28;20053;-75
2022/09/10 09:50:37;;;;;;;3.83;1.45;;;18.60;76.40;;;;;;5020928;28;20097;-75
2022/09/10 09:53:03;;;;;;;1.33;0.85;;;18.70;76.50;;;;;;5013915;28;20121;-76
2022/09/10 09:55:32;;;;;;;2.72;0.90;;;18.70;76.30;;;;;;5016440;28;20064;-76
2022/09/10 09:58:19;;;;;;;2.72;1.08;;;18.80;76.10;;;;;;5022528;28;20033;-75
2022/09/10 10:00:46;;;;;;;1.60;0.80;;;18.90;76.20;;;;;;5017808;28;20666;-75
2022/09/10 10:03:27;;;;;;;1.85;0.63;;;18.90;75.90;;;;;;4990151;28;20100;-75
2022/09/10 10:06:06;;;;;;;;;;;18.90;75.90;;;;;;4988471;28;20040;-76
2022/09/10 10:08:40;;;;;;;3.05;0.88;;;18.90;75.60;;;;;;5019555;28;19921;-73
2022/09/10 10:11:06;;;;;;;7.78;1.13;;;18.90;75.40;;;;;;4987376;28;20706;-76
2022/09/10 10:13:42;;;;;;;4.57;0.90;;;18.90;75.20;;;;;;4989994;28;20132;-76
2022/09/10 10:16:13;;;;;;;2.75;1.15;;;19.00;74.90;;;;;;5003253;28;20029;-76
2022/09/10 10:18:38;;;;;;;3.05;1.30;;;19.00;74.80;;;;;;5022826;28;20497;-75
2022/09/10 10:21:42;;;;;;;5.30;1.20;;;19.10;74.70;;;;;;4989583;28;20036;-75
2022/09/10 10:24:28;;;;;;;2.17;0.90;;;19.30;74.50;;;;;;5006413;28;20047;-76
2022/09/10 10:26:54;;;;;;;1.27;0.93;;;19.50;74.20;;;;;;5010367;28;20049;-75
2022/09/10 10:29:20;;;;;;;6.70;1.20;;;19.70;74.00;;;;;;5024193;28;20049;-77
2022/09/10 10:31:47;;;;;;;5.25;1.05;;;19.90;73.70;;;;;;5022911;28;20038;-77
2022/09/10 10:34:15;;;;;;;1.88;0.85;;;20.00;73.10;;;;;;5011713;28;20025;-78
2022/09/10 10:36:46;;;;;;;1.73;0.73;;;20.10;72.60;;;;;;5024051;28;20053;-77
2022/09/10 10:39:28;;;;;;;4.25;0.80;;;20.10;72.10;;;;;;5041162;28;20100;-77
2022/09/10 10:42:21;;;;;;;2.85;0.90;;;20.10;71.80;;;;;;5021633;28;20056;-77
2022/09/10 10:44:54;;;;;;;2.15;1.00;;;20.20;71.30;;;;;;5041184;28;20041;-77
2022/09/10 10:47:31;;;;;;;4.80;1.00;;;20.20;71.30;;;;;;5010533;28;20033;-77
2022/09/10 10:50:12;;;;;;;1.70;0.77;;;20.20;70.90;;;;;;5036937;28;20089;-78
2022/09/10 10:52:43;;;;;;;4.07;1.30;;;20.20;70.90;;;;;;5022701;28;20067;-77
2022/09/10 10:55:32;;;;;;;2.13;0.93;;;20.20;70.70;;;;;;5026059;28;20048;-78
2022/09/10 10:58:16;;;;;;;2.17;1.00;;;20.20;70.60;;;;;;5013701;28;20046;-78
2022/09/10 11:00:47;;;;;;;2.42;0.73;;;20.30;71.00;;;;;;5019801;28;20039;-78
2022/09/10 11:03:31;;;;;;;2.60;1.35;;;20.40;70.80;;;;;;4986582;28;20033;-78
2022/09/10 11:06:03;;;;;;;1.02;0.80;;;20.60;71.10;;;;;;4994864;28;20040;-78
2022/09/10 11:08:54;;;;;;;4.75;1.10;;;20.80;70.90;;;;;;4985363;28;20036;-78
2022/09/10 11:11:27;;;;;;;2.22;0.90;;;21.00;70.40;;;;;;5013664;28;20021;-78
2022/09/10 11:14:31;;;;;;;2.05;1.00;;;21.10;69.70;;;;;;5020501;28;20132;-78
2022/09/10 11:17:01;;;;;;;1.95;0.90;;;21.20;68.60;;;;;;4993453;28;20092;-78
2022/09/10 11:19:35;;;;;;;3.03;0.90;;;21.30;68.80;;;;;;4993078;28;20033;-78
2022/09/10 11:22:18;;;;;;;3.05;1.00;;;21.30;68.30;;;;;;4990630;28;20133;-78
2022/09/10 11:24:50;;;;;;;2.72;1.00;;;21.30;67.90;;;;;;5024550;28;20029;-78
2022/09/10 11:27:40;;;;;;;3.13;0.88;;;21.30;67.70;;;;;;5007271;28;20036;-78
2022/09/10 11:30:10;;;;;;;3.65;0.82;;;21.30;67.10;;;;;;5006947;28;20041;-77
2022/09/10 11:32:42;;;;;;;1.45;0.65;;;21.30;67.30;;;;;;5008844;28;20029;-77
2022/09/10 11:35:33;;;;;;;1.17;0.70;;;21.30;67.00;;;;;;5019846;28;20064;-78
2022/09/10 11:38:03;;;;;;;3.35;0.60;;;21.40;66.10;;;;;;5020159;28;20199;-77
2022/09/10 11:40:51;;;;;;;2.95;0.70;;;21.40;66.50;;;;;;5019973;28;20044;-78
2022/09/10 11:43:57;;;;;;;4.15;0.57;;;21.30;65.90;;;;;;5020334;28;20081;-78
2022/09/10 11:46:37;;;;;;;1.50;0.73;;;21.30;65.20;;;;;;5010627;28;20057;-78
2022/09/10 11:49:14;;;;;;;1.52;0.55;;;21.30;65.50;;;;;;5040827;28;20067;-78
2022/09/10 11:51:40;;;;;;;3.05;0.80;;;21.40;65.60;;;;;;5039463;28;20159;-77
2022/09/10 11:54:12;;;;;;;3.80;0.77;;;21.50;65.40;;;;;;5040979;28;20060;-78
2022/09/10 11:57:10;;;;;;;2.42;0.77;;;21.40;64.90;;;;;;5004791;28;20072;-78
2022/09/10 12:00:24;;;;;;;1.73;0.57;;;21.30;64.60;;;;;;5012819;28;20029;-76
2022/09/10 12:03:14;;;;;;;2.10;0.70;;;21.20;64.40;;;;;;5036353;28;20040;-77
2022/09/10 12:06:03;;;;;;;1.50;0.68;;;21.20;64.60;;;;;;5024141;28;20037;-77
2022/09/10 12:08:42;;;;;;;3.60;0.70;;;21.20;64.80;;;;;;5008031;28;20053;-77
2022/09/10 12:11:34;;;;;;;3.25;1.05;;;21.20;65.00;;;;;;5023326;28;20030;-77
2022/09/10 12:14:04;;;;;;;;;;;21.20;65.10;;;;;;5043296;28;20041;-79
2022/09/10 12:16:34;;;;;;;1.75;0.50;;;21.40;65.20;;;;;;5039878;28;19913;-77
2022/09/10 12:19:02;;;;;;;2.67;0.65;;;21.50;65.10;;;;;;4995403;28;20044;-78
2022/09/10 12:21:41;;;;;;;2.17;0.60;;;21.70;65.00;;;;;;5022243;28;20044;-78
2022/09/10 12:24:29;;;;;;;1.95;0.60;;;21.80;64.60;;;;;;5023252;28;20029;-77
2022/09/10 12:26:55;;;;;;;1.75;0.80;;;22.00;64.00;;;;;;5022773;28;20041;-77
2022/09/10 12:29:32;;;;;;;0.75;0.50;;;22.10;64.80;;;;;;5014096;28;20038;-77
2022/09/10 12:32:06;;;;;;;3.58;0.70;;;22.20;63.40;;;;;;5003180;28;20044;-78
2022/09/10 12:34:32;;;;;;;2.70;0.47;;;22.30;63.20;;;;;;5021644;28;20157;-78
2022/09/10 12:36:58;;;;;;;1.92;0.47;;;22.30;63.00;;;;;;5003685;28;20046;-78
2022/09/10 12:39:24;;;;;;;2.80;0.70;;;22.30;62.80;;;;;;5024521;28;20072;-78
2022/09/10 12:41:50;;;;;;;1.52;0.70;;;22.30;62.50;;;;;;5009519;28;20030;-78
2022/09/10 12:44:34;;;;;;;1.92;0.50;;;22.30;62.40;;;;;;5021631;28;20038;-78
2022/09/10 12:47:38;;;;;;;1.13;0.50;;;22.30;61.70;;;;;;5023081;28;20918;-79
2022/09/10 12:50:24;;;;;;;2.78;0.98;;;22.20;61.50;;;;;;4980206;28;20037;-77
2022/09/10 12:52:52;;;;;;;4.03;0.75;;;22.10;62.00;;;;;;5010803;28;20053;-77
2022/09/10 12:55:27;;;;;;;4.43;0.80;;;22.00;62.30;;;;;;5001620;28;20086;-76
2022/09/10 12:58:11;;;;;;;1.88;0.75;;;21.90;62.70;;;;;;5001877;28;20046;-77
2022/09/10 13:00:54;;;;;;;1.23;0.50;;;21.80;63.20;;;;;;5005362;28;20030;-76
2022/09/10 13:03:24;;;;;;;1.90;0.60;;;21.80;64.40;;;;;;4988020;28;20503;-73
2022/09/10 13:05:50;;;;;;;2.03;0.70;;;21.90;64.30;;;;;;5005150;28;20046;-77
2022/09/10 13:08:46;;;;;;;2.17;0.43;;;22.00;64.50;;;;;;4982074;28;20057;-78
2022/09/10 13:11:19;;;;;;;1.70;0.40;;;22.20;64.70;;;;;;4990422;28;20050;-77
2022/09/10 13:13:48;;;;;;;0.43;0.25;;;22.40;64.80;;;;;;4993306;28;20046;-77
2022/09/10 13:16:18;;;;;;;1.92;0.30;;;22.50;64.60;;;;;;5000409;28;20193;-77
2022/09/10 13:18:45;;;;;;;1.20;0.40;;;22.50;64.40;;;;;;4998104;28;20034;-77
2022/09/10 13:21:22;;;;;;;2.15;0.47;;;22.50;64.30;;;;;;4981018;28;20034;-77
2022/09/10 13:23:49;;;;;;;0.30;0.30;;;22.50;64.20;;;;;;4991718;28;20038;-77
2022/09/10 13:26:38;;;;;;;2.33;0.30;;;22.50;64.30;;;;;;4958588;28;20048;-72
2022/09/10 13:29:10;;;;;;;1.90;0.50;;;22.50;64.40;;;;;;4974290;28;20042;-73
2022/09/10 13:31:42;;;;;;;0.88;0.38;;;22.50;64.20;;;;;;4976794;28;20145;-72
2022/09/10 13:34:14;;;;;;;0.73;0.30;;;22.50;64.10;;;;;;5016642;28;20129;-74
2022/09/10 13:36:54;;;;;;;0.43;0.40;;;22.60;64.10;;;;;;5019104;28;20072;-72
2022/09/10 13:39:53;;;;;;;1.35;0.85;;;22.60;64.00;;;;;;5006036;28;20885;-71
2022/09/10 13:42:37;;;;;;;7.28;1.70;;;22.70;63.80;;;;;;5018154;28;20044;-72
2022/09/10 13:45:28;;;;;;;8.02;1.92;;;22.80;63.90;;;;;;4993450;28;20508;-74
2022/09/10 13:48:27;;;;;;;5.70;1.60;;;22.90;63.80;;;;;;5017243;28;20121;-74
2022/09/10 13:51:07;;;;;;;6.05;1.45;;;23.00;63.20;;;;;;5003389;28;20479;-72
2022/09/10 13:53:32;;;;;;;5.45;1.42;;;23.00;63.10;;;;;;5037415;28;20037;-77
2022/09/10 13:56:07;;;;;;;1.83;0.60;;;23.00;63.20;;;;;;5041921;28;20083;-77
2022/09/10 13:58:34;;;;;;;1.80;0.63;;;23.00;63.00;;;;;;5014040;28;20036;-75
2022/09/10 14:01:02;;;;;;;0.65;0.30;;;23.10;62.80;;;;;;5048422;28;20033;-76
2022/09/10 14:03:34;;;;;;;0.75;0.30;;;23.00;62.50;;;;;;5037750;28;20038;-76
2022/09/10 14:06:06;;;;;;;1.48;0.45;;;23.00;62.60;;;;;;5041236;28;20042;-77
2022/09/10 14:08:48;;;;;;;0.63;0.38;;;23.10;62.90;;;;;;5044162;28;20061;-76
2022/09/10 14:11:24;;;;;;;1.00;0.40;;;23.40;62.80;;;;;;5025680;28;20033;-76
2022/09/10 14:13:57;;;;;;;0.77;0.22;;;23.50;62.20;;;;;;5023913;28;20777;-76
2022/09/10 14:16:40;;;;;;;0.85;0.55;;;23.70;62.00;;;;;;5039744;28;20037;-77